sensor_id;sensor_type;location;lat;lon;timestamp;pressure;altitude;pressure_sealevel;temperature;humidity
6150;BME280;3106;42.670;23.318;2023-01-30T00:02:08;94637.38;;;-0.32;100.00
6150;BME280;3106;42.670;23.318;2023-01-30T00:04:35;94629.19;;;-0.30;100.00
6150;BME280;3106;42.670;23.318;2023-01-30T00:07:02;94649.88;;;-0.14;100.00
6150;BME280;3106;42.670;23.318;2023-01-30T00:09:28;94616.88;;;-0.30;100.00
6150;BME280;3106;42.670;23.318;2023-01-30T00:11:55;94645.72;;;-0.20;100.00
6150;BME280;3106;42.670;23.318;2023-01-30T00:14:22;94632.63;;;-0.30;100.00
6150;BME280;3106;42.670;23.318;2023-01-30T00:16:50;94610.91;;;-0.45;100.00
6150;BME280;3106;42.670;23.318;2023-01-30T00:19:17;94602.78;;;-0.54;100.00
6150;BME280;3106;42.670;23.318;2023-01-30T00:21:44;94569.53;;;-0.73;100.00
6150;BME280;3106;42.670;23.318;2023-01-30T00:24:11;94621.13;;;-0.49;100.00
6150;BME280;3106;42.670;23.318;2023-01-30T00:26:38;94652.88;;;-0.40;100.00
6150;BME280;3106;42.670;23.318;2023-01-30T00:29:05;94568.81;;;-0.94;100.00
6150;BME280;3106;42.670;23.318;2023-01-30T00:31:31;94593.94;;;-0.78;100.00
6150;BME280;3106;42.670;23.318;2023-01-30T00:34:00;94636.16;;;-0.64;100.00
6150;BME280;3106;42.670;23.318;2023-01-30T00:36:27;94583.75;;;-0.84;100.00
6150;BME280;3106;42.670;23.318;2023-01-30T00:38:55;94616.19;;;-0.60;100.00
6150;BME280;3106;42.670;23.318;2023-01-30T00:41:23;94617.47;;;-0.53;100.00
6150;BME280;3106;42.670;23.318;2023-01-30T00:44:09;94640.31;;;-0.48;100.00
6150;BME280;3106;42.670;23.318;2023-01-30T00:46:54;94633.78;;;-0.56;100.00
6150;BME280;3106;42.670;23.318;2023-01-30T00:49:34;94635.06;;;-0.58;100.00
6150;BME280;3106;42.670;23.318;2023-01-30T00:52:02;94622.47;;;-0.56;100.00
6150;BME280;3106;42.670;23.318;2023-01-30T00:54:29;94580.84;;;-0.83;100.00
6150;BME280;3106;42.670;23.318;2023-01-30T00:56:59;94630.09;;;-0.60;100.00
6150;BME280;3106;42.670;23.318;2023-01-30T00:59:27;94616.72;;;-0.63;100.00
6150;BME280;3106;42.670;23.318;2023-01-30T01:01:54;94553.41;;;-1.15;100.00
6150;BME280;3106;42.670;23.318;2023-01-30T01:04:21;94621.22;;;-0.74;100.00
6150;BME280;3106;42.670;23.318;2023-01-30T01:06:49;94632.47;;;-0.63;100.00
6150;BME280;3106;42.670;23.318;2023-01-30T01:09:16;94597.34;;;-0.77;100.00
6150;BME280;3106;42.670;23.318;2023-01-30T01:11:43;94596.03;;;-0.80;100.00
6150;BME280;3106;42.670;23.318;2023-01-30T01:14:10;94605.47;;;-0.79;100.00
6150;BME280;3106;42.670;23.318;2023-01-30T01:16:37;94606.31;;;-0.83;100.00
6150;BME280;3106;42.670;23.318;2023-01-30T01:19:03;94589.25;;;-0.86;100.00
6150;BME280;3106;42.670;23.318;2023-01-30T01:21:30;94560.97;;;-0.99;100.00
6150;BME280;3106;42.670;23.318;2023-01-30T01:23:59;94544.97;;;-1.07;100.00
6150;BME280;3106;42.670;23.318;2023-01-30T01:26:26;94534.22;;;-1.11;100.00
6150;BME280;3106;42.670;23.318;2023-01-30T01:28:54;94569.28;;;-0.82;100.00
6150;BME280;3106;42.670;23.318;2023-01-30T01:31:21;94596.78;;;-0.64;100.00
6150;BME280;3106;42.670;23.318;2023-01-30T01:33:50;94574.00;;;-0.84;100.00
6150;BME280;3106;42.670;23.318;2023-01-30T01:36:17;94554.34;;;-0.91;100.00
6150;BME280;3106;42.670;23.318;2023-01-30T01:38:44;94603.09;;;-0.65;100.00
6150;BME280;3106;42.670;23.318;2023-01-30T01:41:16;94566.16;;;-0.84;100.00
6150;BME280;3106;42.670;23.318;2023-01-30T01:44:00;94595.50;;;-0.77;100.00
6150;BME280;3106;42.670;23.318;2023-01-30T01:46:30;94588.94;;;-0.74;100.00
6150;BME280;3106;42.670;23.318;2023-01-30T01:48:59;94558.31;;;-0.94;100.00
6150;BME280;3106;42.670;23.318;2023-01-30T01:51:30;94557.25;;;-0.93;100.00
6150;BME280;3106;42.670;23.318;2023-01-30T01:54:01;94579.75;;;-0.77;100.00
6150;BME280;3106;42.670;23.318;2023-01-30T01:56:31;94600.19;;;-0.59;100.00
6150;BME280;3106;42.670;23.318;2023-01-30T01:59:02;94586.03;;;-0.68;100.00
6150;BME280;3106;42.670;23.318;2023-01-30T02:01:30;94588.69;;;-0.73;100.00
6150;BME280;3106;42.670;23.318;2023-01-30T02:04:00;94587.91;;;-0.73;100.00
6150;BME280;3106;42.670;23.318;2023-01-30T02:06:29;94559.09;;;-0.93;100.00
6150;BME280;3106;42.670;23.318;2023-01-30T02:08:58;94579.53;;;-0.80;100.00
6150;BME280;3106;42.670;23.318;2023-01-30T02:11:32;94568.25;;;-0.86;100.00
6150;BME280;3106;42.670;23.318;2023-01-30T02:14:02;94611.97;;;-0.56;100.00
6150;BME280;3106;42.670;23.318;2023-01-30T02:16:29;94555.94;;;-0.85;100.00
6150;BME280;3106;42.670;23.318;2023-01-30T02:18:56;94577.41;;;-0.78;100.00
6150;BME280;3106;42.670;23.318;2023-01-30T02:22:02;94573.75;;;-0.77;100.00
6150;BME280;3106;42.670;23.318;2023-01-30T02:31:20;94594.19;;;-0.74;100.00
6150;BME280;3106;42.670;23.318;2023-01-30T02:33:59;94557.00;;;-0.86;100.00
6150;BME280;3106;42.670;23.318;2023-01-30T02:36:38;94549.66;;;-0.89;100.00
6150;BME280;3106;42.670;23.318;2023-01-30T02:39:15;94585.00;;;-0.67;100.00
6150;BME280;3106;42.670;23.318;2023-01-30T02:41:53;94553.34;;;-0.90;100.00
6150;BME280;3106;42.670;23.318;2023-01-30T02:44:28;94569.78;;;-0.70;100.00
6150;BME280;3106;42.670;23.318;2023-01-30T02:47:03;94567.41;;;-0.71;100.00
6150;BME280;3106;42.670;23.318;2023-01-30T02:49:35;94546.22;;;-0.85;100.00
6150;BME280;3106;42.670;23.318;2023-01-30T02:52:05;94535.97;;;-0.81;100.00
6150;BME280;3106;42.670;23.318;2023-01-30T02:54:34;94555.13;;;-0.81;100.00
6150;BME280;3106;42.670;23.318;2023-01-30T02:57:01;94572.59;;;-0.56;100.00
6150;BME280;3106;42.670;23.318;2023-01-30T02:59:31;94545.34;;;-0.65;100.00
6150;BME280;3106;42.670;23.318;2023-01-30T03:02:27;94593.56;;;-0.46;100.00
6150;BME280;3106;42.670;23.318;2023-01-30T03:05:30;94568.72;;;-0.64;100.00
6150;BME280;3106;42.670;23.318;2023-01-30T03:08:11;94578.91;;;-0.52;100.00
6150;BME280;3106;42.670;23.318;2023-01-30T03:10:45;94556.38;;;-0.68;100.00
6150;BME280;3106;42.670;23.318;2023-01-30T03:13:19;94591.16;;;-0.43;100.00
6150;BME280;3106;42.670;23.318;2023-01-30T03:15:54;94550.03;;;-0.62;100.00
6150;BME280;3106;42.670;23.318;2023-01-30T03:18:24;94501.69;;;-1.00;100.00
6150;BME280;3106;42.670;23.318;2023-01-30T03:20:51;94527.84;;;-0.85;100.00
6150;BME280;3106;42.670;23.318;2023-01-30T03:23:18;94545.91;;;-0.73;100.00
6150;BME280;3106;42.670;23.318;2023-01-30T03:25:46;94573.66;;;-0.57;100.00
6150;BME280;3106;42.670;23.318;2023-01-30T03:28:17;94528.06;;;-0.76;100.00
6150;BME280;3106;42.670;23.318;2023-01-30T03:30:46;94561.84;;;-0.55;100.00
6150;BME280;3106;42.670;23.318;2023-01-30T03:33:12;94528.06;;;-0.76;100.00
6150;BME280;3106;42.670;23.318;2023-01-30T03:35:41;94550.53;;;-0.55;100.00
6150;BME280;3106;42.670;23.318;2023-01-30T03:38:08;94522.28;;;-0.73;100.00
6150;BME280;3106;42.670;23.318;2023-01-30T03:40:35;94522.06;;;-0.82;100.00
6150;BME280;3106;42.670;23.318;2023-01-30T03:43:01;94528.91;;;-0.86;100.00
6150;BME280;3106;42.670;23.318;2023-01-30T03:45:28;94527.31;;;-0.87;100.00
6150;BME280;3106;42.670;23.318;2023-01-30T03:47:55;94510.31;;;-0.99;100.00
6150;BME280;3106;42.670;23.318;2023-01-30T03:50:22;94510.28;;;-0.94;100.00
6150;BME280;3106;42.670;23.318;2023-01-30T03:52:50;94541.72;;;-0.74;100.00
6150;BME280;3106;42.670;23.318;2023-01-30T03:55:17;94528.63;;;-0.79;100.00
6150;BME280;3106;42.670;23.318;2023-01-30T03:57:44;94532.78;;;-0.73;100.00
6150;BME280;3106;42.670;23.318;2023-01-30T04:00:12;94554.81;;;-0.69;100.00
6150;BME280;3106;42.670;23.318;2023-01-30T04:02:39;94547.72;;;-0.64;100.00
6150;BME280;3106;42.670;23.318;2023-01-30T04:05:06;94514.69;;;-0.80;100.00
6150;BME280;3106;42.670;23.318;2023-01-30T04:07:33;94533.59;;;-0.73;100.00
6150;BME280;3106;42.670;23.318;2023-01-30T04:10:01;94513.41;;;-0.82;100.00
6150;BME280;3106;42.670;23.318;2023-01-30T04:12:28;94526.00;;;-0.79;100.00
6150;BME280;3106;42.670;23.318;2023-01-30T04:14:55;94518.69;;;-0.87;100.00
6150;BME280;3106;42.670;23.318;2023-01-30T04:17:22;94516.03;;;-0.82;100.00
6150;BME280;3106;42.670;23.318;2023-01-30T04:19:48;94531.47;;;-0.76;100.00
6150;BME280;3106;42.670;23.318;2023-01-30T04:22:15;94490.38;;;-1.00;100.00
6150;BME280;3106;42.670;23.318;2023-01-30T04:24:42;94502.94;;;-0.92;100.00
6150;BME280;3106;42.670;23.318;2023-01-30T04:27:10;94526.03;;;-0.94;100.00
6150;BME280;3106;42.670;23.318;2023-01-30T04:29:37;94519.72;;;-0.93;100.00
6150;BME280;3106;42.670;23.318;2023-01-30T04:32:04;94535.47;;;-0.88;100.00
6150;BME280;3106;42.670;23.318;2023-01-30T04:34:32;94525.50;;;-0.91;100.00
6150;BME280;3106;42.670;23.318;2023-01-30T04:37:00;94514.50;;;-0.98;100.00
6150;BME280;3106;42.670;23.318;2023-01-30T04:39:27;94496.69;;;-1.01;100.00
6150;BME280;3106;42.670;23.318;2023-01-30T04:41:54;94507.13;;;-0.86;100.00
6150;BME280;3106;42.670;23.318;2023-01-30T04:44:22;94544.25;;;-0.59;100.00
6150;BME280;3106;42.670;23.318;2023-01-30T04:46:49;94526.22;;;-0.71;100.00
6150;BME280;3106;42.670;23.318;2023-01-30T04:49:16;94541.38;;;-0.58;100.00
6150;BME280;3106;42.670;23.318;2023-01-30T04:51:42;94504.72;;;-0.78;100.00
6150;BME280;3106;42.670;23.318;2023-01-30T04:54:09;94503.97;;;-0.83;100.00
6150;BME280;3106;42.670;23.318;2023-01-30T04:56:36;94526.72;;;-0.74;100.00
6150;BME280;3106;42.670;23.318;2023-01-30T04:59:03;94473.06;;;-1.01;100.00
6150;BME280;3106;42.670;23.318;2023-01-30T05:01:33;94517.56;;;-0.76;100.00
6150;BME280;3106;42.670;23.318;2023-01-30T05:04:03;94499.50;;;-0.83;100.00
6150;BME280;3106;42.670;23.318;2023-01-30T05:06:30;94504.72;;;-0.78;100.00
6150;BME280;3106;42.670;23.318;2023-01-30T05:08:58;94517.84;;;-0.73;100.00
6150;BME280;3106;42.670;23.318;2023-01-30T05:11:26;94484.63;;;-1.02;100.00
6150;BME280;3106;42.670;23.318;2023-01-30T05:13:53;94495.38;;;-0.99;100.00
6150;BME280;3106;42.670;23.318;2023-01-30T05:16:21;94494.06;;;-1.01;100.00
6150;BME280;3106;42.670;23.318;2023-01-30T05:18:53;94474.25;;;-1.27;100.00
6150;BME280;3106;42.670;23.318;2023-01-30T05:21:21;94474.25;;;-1.32;100.00
6150;BME280;3106;42.670;23.318;2023-01-30T05:23:50;94532.31;;;-0.85;100.00
6150;BME280;3106;42.670;23.318;2023-01-30T05:26:18;94519.50;;;-0.97;100.00
6150;BME280;3106;42.670;23.318;2023-01-30T05:28:50;94532.09;;;-0.94;100.00
6150;BME280;3106;42.670;23.318;2023-01-30T05:31:17;94498.88;;;-1.18;100.00
6150;BME280;3106;42.670;23.318;2023-01-30T05:33:46;94537.03;;;-0.92;100.00
6150;BME280;3106;42.670;23.318;2023-01-30T05:36:16;94495.72;;;-1.20;100.00
6150;BME280;3106;42.670;23.318;2023-01-30T05:38:43;94511.13;;;-1.04;100.00
6150;BME280;3106;42.670;23.318;2023-01-30T05:41:12;94497.53;;;-1.16;100.00
6150;BME280;3106;42.670;23.318;2023-01-30T05:44:02;94527.09;;;-0.90;100.00
6150;BME280;3106;42.670;23.318;2023-01-30T05:46:29;94531.53;;;-0.86;100.00
6150;BME280;3106;42.670;23.318;2023-01-30T05:48:56;94527.09;;;-0.90;100.00
6150;BME280;3106;42.670;23.318;2023-01-30T05:51:25;94494.13;;;-1.16;100.00
6150;BME280;3106;42.670;23.318;2023-01-30T05:53:52;94542.28;;;-0.82;100.00
6150;BME280;3106;42.670;23.318;2023-01-30T05:56:19;94542.31;;;-0.87;100.00
6150;BME280;3106;42.670;23.318;2023-01-30T05:58:51;94530.53;;;-1.00;100.00
6150;BME280;3106;42.670;23.318;2023-01-30T06:01:18;94521.38;;;-1.07;100.00
6150;BME280;3106;42.670;23.318;2023-01-30T06:03:45;94542.84;;;-1.00;100.00
6150;BME280;3106;42.670;23.318;2023-01-30T06:06:12;94549.38;;;-0.93;100.00
6150;BME280;3106;42.670;23.318;2023-01-30T06:08:40;94531.06;;;-1.03;100.00
6150;BME280;3106;42.670;23.318;2023-01-30T06:11:09;94540.47;;;-0.92;100.00
6150;BME280;3106;42.670;23.318;2023-01-30T06:13:36;94538.94;;;-1.03;100.00
6150;BME280;3106;42.670;23.318;2023-01-30T06:16:04;94540.75;;;-0.98;100.00
6150;BME280;3106;42.670;23.318;2023-01-30T06:18:31;94508.28;;;-1.12;100.00
6150;BME280;3106;42.670;23.318;2023-01-30T06:20:58;94520.00;;;-0.95;100.00
6150;BME280;3106;42.670;23.318;2023-01-30T06:23:26;94535.47;;;-0.93;100.00
6150;BME280;3106;42.670;23.318;2023-01-30T06:25:54;94504.88;;;-1.08;100.00
6150;BME280;3106;42.670;23.318;2023-01-30T06:28:22;94510.38;;;-1.09;100.00
6150;BME280;3106;42.670;23.318;2023-01-30T06:30:49;94531.03;;;-0.93;100.00
6150;BME280;3106;42.670;23.318;2023-01-30T06:33:16;94521.09;;;-1.01;100.00
6150;BME280;3106;42.670;23.318;2023-01-30T06:35:43;94522.16;;;-1.02;100.00
6150;BME280;3106;42.670;23.318;2023-01-30T06:38:11;94483.66;;;-1.21;100.00
6150;BME280;3106;42.670;23.318;2023-01-30T06:40:39;94528.66;;;-0.94;100.00
6150;BME280;3106;42.670;23.318;2023-01-30T06:43:07;94481.06;;;-1.26;100.00
6150;BME280;3106;42.670;23.318;2023-01-30T06:45:48;94532.56;;;-0.87;100.00
6150;BME280;3106;42.670;23.318;2023-01-30T06:48:18;94539.69;;;-0.87;100.00
6150;BME280;3106;42.670;23.318;2023-01-30T06:51:02;94522.41;;;-1.03;100.00
6150;BME280;3106;42.670;23.318;2023-01-30T06:53:29;94523.72;;;-1.01;100.00
6150;BME280;3106;42.670;23.318;2023-01-30T06:55:56;94538.34;;;-0.90;100.00
6150;BME280;3106;42.670;23.318;2023-01-30T06:58:25;94520.31;;;-1.06;100.00
6150;BME280;3106;42.670;23.318;2023-01-30T07:00:52;94504.88;;;-1.18;100.00
6150;BME280;3106;42.670;23.318;2023-01-30T07:03:19;94523.19;;;-1.03;100.00
6150;BME280;3106;42.670;23.318;2023-01-30T07:05:46;94497.03;;;-1.23;100.00
6150;BME280;3106;42.670;23.318;2023-01-30T07:08:14;94522.41;;;-1.08;100.00
6150;BME280;3106;42.670;23.318;2023-01-30T07:10:42;94499.13;;;-1.25;100.00
6150;BME280;3106;42.670;23.318;2023-01-30T07:13:09;94518.00;;;-1.18;100.00
6150;BME280;3106;42.670;23.318;2023-01-30T07:15:38;94552.56;;;-0.96;100.00
6150;BME280;3106;42.670;23.318;2023-01-30T07:18:04;94514.81;;;-1.15;100.00
6150;BME280;3106;42.670;23.318;2023-01-30T07:20:31;94497.81;;;-1.22;100.00
6150;BME280;3106;42.670;23.318;2023-01-30T07:22:58;94562.25;;;-0.86;100.00
6150;BME280;3106;42.670;23.318;2023-01-30T07:25:26;94528.69;;;-0.99;100.00
6150;BME280;3106;42.670;23.318;2023-01-30T07:27:55;94535.47;;;-0.93;100.00
6150;BME280;3106;42.670;23.318;2023-01-30T07:30:23;94532.59;;;-0.92;100.00
6150;BME280;3106;42.670;23.318;2023-01-30T07:32:52;94514.00;;;-1.00;100.00
6150;BME280;3106;42.670;23.318;2023-01-30T07:35:21;94530.41;;;-0.70;100.00
6150;BME280;3106;42.670;23.318;2023-01-30T07:37:53;94542.47;;;-0.64;100.00
6150;BME280;3106;42.670;23.318;2023-01-30T07:40:20;94577.34;;;-0.53;100.00
6150;BME280;3106;42.670;23.318;2023-01-30T07:42:57;94552.69;;;-0.67;100.00
6150;BME280;3106;42.670;23.318;2023-01-30T07:45:27;94575.00;;;-0.65;100.00
6150;BME280;3106;42.670;23.318;2023-01-30T07:47:57;94497.47;;;-0.96;100.00
6150;BME280;3106;42.670;23.318;2023-01-30T07:50:24;94567.56;;;-0.48;100.00
6150;BME280;3106;42.670;23.318;2023-01-30T07:53:11;94544.78;;;-0.52;100.00
6150;BME280;3106;42.670;23.318;2023-01-30T07:55:38;94529.56;;;-0.60;100.00
6150;BME280;3106;42.670;23.318;2023-01-30T07:58:05;94537.06;;;-0.34;100.00
6150;BME280;3106;42.670;23.318;2023-01-30T08:00:32;94530.53;;;-0.41;100.00
6150;BME280;3106;42.670;23.318;2023-01-30T08:03:01;94524.19;;;-0.35;100.00
6150;BME280;3106;42.670;23.318;2023-01-30T08:05:28;94484.91;;;-0.50;100.00
6150;BME280;3106;42.670;23.318;2023-01-30T08:07:58;94451.38;;;-0.68;100.00
6150;BME280;3106;42.670;23.318;2023-01-30T08:10:26;94488.50;;;-0.41;100.00
6150;BME280;3106;42.670;23.318;2023-01-30T08:12:53;94535.00;;;-0.03;100.00
6150;BME280;3106;42.670;23.318;2023-01-30T08:15:20;94548.41;;;-0.05;100.00
6150;BME280;3106;42.670;23.318;2023-01-30T08:17:52;94445.59;;;-0.65;100.00
6150;BME280;3106;42.670;23.318;2023-01-30T08:20:22;94467.81;;;-0.48;100.00
6150;BME280;3106;42.670;23.318;2023-01-30T08:22:49;94459.91;;;-0.48;100.00
6150;BME280;3106;42.670;23.318;2023-01-30T08:25:16;94513.91;;;-0.27;100.00
6150;BME280;3106;42.670;23.318;2023-01-30T08:27:42;94504.19;;;-0.31;100.00
6150;BME280;3106;42.670;23.318;2023-01-30T08:30:11;94522.16;;;-0.10;100.00
6150;BME280;3106;42.670;23.318;2023-01-30T08:32:38;94536.19;;;0.14;100.00
6150;BME280;3106;42.670;23.318;2023-01-30T08:35:05;94525.16;;;0.12;100.00
6150;BME280;3106;42.670;23.318;2023-01-30T08:37:34;94504.75;;;0.04;100.00
6150;BME280;3106;42.670;23.318;2023-01-30T08:40:01;94519.81;;;0.22;100.00
6150;BME280;3106;42.670;23.318;2023-01-30T08:42:28;94512.44;;;0.24;99.49
6150;BME280;3106;42.670;23.318;2023-01-30T08:44:57;94522.38;;;0.32;98.99
6150;BME280;3106;42.670;23.318;2023-01-30T08:47:24;94493.34;;;0.13;98.21
6150;BME280;3106;42.670;23.318;2023-01-30T08:49:51;94469.03;;;0.03;97.76
6150;BME280;3106;42.670;23.318;2023-01-30T08:52:18;94501.88;;;0.29;96.41
6150;BME280;3106;42.670;23.318;2023-01-30T08:54:47;94494.84;;;0.24;96.29
6150;BME280;3106;42.670;23.318;2023-01-30T08:57:14;94476.50;;;0.19;96.48
6150;BME280;3106;42.670;23.318;2023-01-30T08:59:41;94472.47;;;0.27;96.29
6150;BME280;3106;42.670;23.318;2023-01-30T09:02:08;94496.28;;;0.40;95.75
6150;BME280;3106;42.670;23.318;2023-01-30T09:04:35;94477.34;;;0.38;95.28
6150;BME280;3106;42.670;23.318;2023-01-30T09:07:03;94483.53;;;0.52;94.18
6150;BME280;3106;42.670;23.318;2023-01-30T09:09:30;94483.31;;;0.49;94.52
6150;BME280;3106;42.670;23.318;2023-01-30T09:11:58;94454.72;;;0.42;94.47
6150;BME280;3106;42.670;23.318;2023-01-30T09:14:25;94437.28;;;0.23;94.03
6150;BME280;3106;42.670;23.318;2023-01-30T09:16:52;94494.03;;;0.57;93.63
6150;BME280;3106;42.670;23.318;2023-01-30T09:19:21;94454.22;;;0.12;93.18
6150;BME280;3106;42.670;23.318;2023-01-30T09:21:49;94412.03;;;-0.02;94.95
6150;BME280;3106;42.670;23.318;2023-01-30T09:24:17;94470.25;;;0.10;96.23
6150;BME280;3106;42.670;23.318;2023-01-30T09:26:44;94462.59;;;-0.14;98.77
6150;BME280;3106;42.670;23.318;2023-01-30T09:29:12;94456.06;;;-0.22;99.39
6150;BME280;3106;42.670;23.318;2023-01-30T09:31:39;94487.97;;;-0.05;99.95
6150;BME280;3106;42.670;23.318;2023-01-30T09:34:06;94487.72;;;-0.03;100.00
6150;BME280;3106;42.670;23.318;2023-01-30T09:36:33;94381.03;;;-0.66;99.97
6150;BME280;3106;42.670;23.318;2023-01-30T09:39:00;94472.63;;;-0.26;99.90
6150;BME280;3106;42.670;23.318;2023-01-30T09:41:40;94418.75;;;-0.52;99.81
6150;BME280;3106;42.670;23.318;2023-01-30T09:47:13;94474.63;;;-0.08;100.00
6150;BME280;3106;42.670;23.318;2023-01-30T09:49:49;94454.53;;;-0.28;100.00
6150;BME280;3106;42.670;23.318;2023-01-30T09:52:26;94463.56;;;-0.05;100.00
6150;BME280;3106;42.670;23.318;2023-01-30T09:54:59;94443.09;;;-0.08;100.00
6150;BME280;3106;42.670;23.318;2023-01-30T09:57:28;94450.97;;;-0.08;100.00
6150;BME280;3106;42.670;23.318;2023-01-30T10:00:02;94437.09;;;-0.14;100.00
6150;BME280;3106;42.670;23.318;2023-01-30T10:02:37;94452.75;;;-0.04;100.00
6150;BME280;3106;42.670;23.318;2023-01-30T10:05:06;94437.75;;;0.01;100.00
6150;BME280;3106;42.670;23.318;2023-01-30T10:07:46;94453.72;;;0.10;100.00
6150;BME280;3106;42.670;23.318;2023-01-30T10:10:21;94426.59;;;-0.14;100.00
6150;BME280;3106;42.670;23.318;2023-01-30T10:13:03;94427.13;;;-0.17;100.00
6150;BME280;3106;42.670;23.318;2023-01-30T10:15:45;94442.94;;;0.06;100.00
6150;BME280;3106;42.670;23.318;2023-01-30T10:18:36;94419.72;;;0.18;100.00
6150;BME280;3106;42.670;23.318;2023-01-30T10:21:11;94392.22;;;0.11;100.00
6150;BME280;3106;42.670;23.318;2023-01-30T10:23:51;94373.38;;;0.04;99.68
6150;BME280;3106;42.670;23.318;2023-01-30T10:26:25;94383.94;;;-0.06;99.01
6150;BME280;3106;42.670;23.318;2023-01-30T10:28:56;94404.53;;;0.10;99.43
6150;BME280;3106;42.670;23.318;2023-01-30T10:31:29;94413.53;;;0.04;99.33
6150;BME280;3106;42.670;23.318;2023-01-30T10:34:01;94375.41;;;-0.21;99.06
6150;BME280;3106;42.670;23.318;2023-01-30T10:36:35;94372.72;;;-0.45;98.90
6150;BME280;3106;42.670;23.318;2023-01-30T10:39:13;94367.22;;;-0.43;99.42
6150;BME280;3106;42.670;23.318;2023-01-30T10:41:53;94314.63;;;-0.62;98.99
6150;BME280;3106;42.670;23.318;2023-01-30T10:44:22;94350.59;;;-0.34;98.87
6150;BME280;3106;42.670;23.318;2023-01-30T10:47:01;94348.41;;;-0.55;98.41
6150;BME280;3106;42.670;23.318;2023-01-30T10:49:38;94337.09;;;-0.51;98.59
6150;BME280;3106;42.670;23.318;2023-01-30T10:52:17;94304.00;;;-0.52;98.33
6150;BME280;3106;42.670;23.318;2023-01-30T10:54:57;94300.72;;;-0.67;97.72
6150;BME280;3106;42.670;23.318;2023-01-30T10:57:38;94299.06;;;-0.53;97.93
6150;BME280;3106;42.670;23.318;2023-01-30T11:00:16;94298.59;;;-0.37;97.72
6150;BME280;3106;42.670;23.318;2023-01-30T11:03:08;94336.84;;;0.02;97.17
6150;BME280;3106;42.670;23.318;2023-01-30T11:05:43;94277.22;;;-0.25;96.85
6150;BME280;3106;42.670;23.318;2023-01-30T11:08:18;94311.31;;;0.08;97.12
6150;BME280;3106;42.670;23.318;2023-01-30T11:10:45;94316.19;;;0.14;96.80
6150;BME280;3106;42.670;23.318;2023-01-30T11:13:16;94312.19;;;0.22;96.18
6150;BME280;3106;42.670;23.318;2023-01-30T11:15:46;94302.69;;;0.02;95.46
6150;BME280;3106;42.670;23.318;2023-01-30T11:18:15;94286.53;;;-0.09;95.76
6150;BME280;3106;42.670;23.318;2023-01-30T11:20:45;94306.66;;;0.00;96.01
6150;BME280;3106;42.670;23.318;2023-01-30T11:23:25;94261.38;;;-0.15;96.68
6150;BME280;3106;42.670;23.318;2023-01-30T11:25:55;94314.88;;;0.17;95.37
6150;BME280;3106;42.670;23.318;2023-01-30T11:28:24;94276.28;;;0.12;95.37
6150;BME280;3106;42.670;23.318;2023-01-30T11:30:53;94274.94;;;0.15;95.43
6150;BME280;3106;42.670;23.318;2023-01-30T11:33:23;94271.81;;;0.13;95.84
6150;BME280;3106;42.670;23.318;2023-01-30T11:35:57;94271.03;;;0.12;95.98
6150;BME280;3106;42.670;23.318;2023-01-30T11:38:26;94258.13;;;0.16;95.76
6150;BME280;3106;42.670;23.318;2023-01-30T11:41:06;94258.06;;;0.21;95.77
6150;BME280;3106;42.670;23.318;2023-01-30T11:43:39;94259.94;;;0.15;96.02
6150;BME280;3106;42.670;23.318;2023-01-30T11:46:07;94252.72;;;0.26;95.88
6150;BME280;3106;42.670;23.318;2023-01-30T11:48:47;94254.38;;;0.40;95.51
6150;BME280;3106;42.670;23.318;2023-01-30T11:51:18;94224.25;;;0.33;95.71
6150;BME280;3106;42.670;23.318;2023-01-30T11:53:47;94222.69;;;0.32;96.36
6150;BME280;3106;42.670;23.318;2023-01-30T11:56:22;94214.38;;;0.43;95.99
6150;BME280;3106;42.670;23.318;2023-01-30T11:58:54;94194.91;;;0.26;95.84
6150;BME280;3106;42.670;23.318;2023-01-30T12:01:25;94219.13;;;0.41;95.30
6150;BME280;3106;42.670;23.318;2023-01-30T12:03:54;94211.31;;;0.55;95.72
6150;BME280;3106;42.670;23.318;2023-01-30T12:06:28;94200.06;;;0.68;95.22
6150;BME280;3106;42.670;23.318;2023-01-30T12:08:56;94196.19;;;0.65;94.74
6150;BME280;3106;42.670;23.318;2023-01-30T12:11:27;94192.13;;;0.54;95.05
6150;BME280;3106;42.670;23.318;2023-01-30T12:13:56;94187.81;;;0.63;94.79
6150;BME280;3106;42.670;23.318;2023-01-30T12:16:36;94178.75;;;0.69;94.28
6150;BME280;3106;42.670;23.318;2023-01-30T12:19:18;94167.66;;;0.72;93.88
6150;BME280;3106;42.670;23.318;2023-01-30T12:21:51;94174.41;;;0.78;94.12
6150;BME280;3106;42.670;23.318;2023-01-30T12:24:26;94181.06;;;0.89;93.55
6150;BME280;3106;42.670;23.318;2023-01-30T12:26:58;94177.94;;;0.87;93.05
6150;BME280;3106;42.670;23.318;2023-01-30T12:32:05;94162.56;;;1.66;91.42
6150;BME280;3106;42.670;23.318;2023-01-30T12:34:36;94140.88;;;1.96;90.12
6150;BME280;3106;42.670;23.318;2023-01-30T12:37:24;94157.16;;;2.12;87.88
6150;BME280;3106;42.670;23.318;2023-01-30T12:40:00;94144.59;;;1.95;87.22
6150;BME280;3106;42.670;23.318;2023-01-30T12:42:57;94155.56;;;2.38;86.55
6150;BME280;3106;42.670;23.318;2023-01-30T12:45:30;94143.22;;;2.69;84.64
6150;BME280;3106;42.670;23.318;2023-01-30T12:48:09;94140.81;;;3.02;81.49
6150;BME280;3106;42.670;23.318;2023-01-30T12:50:59;94144.59;;;2.66;81.00
6150;BME280;3106;42.670;23.318;2023-01-30T12:53:39;94129.59;;;2.31;82.23
6150;BME280;3106;42.670;23.318;2023-01-30T12:56:28;94136.06;;;2.12;83.54
6150;BME280;3106;42.670;23.318;2023-01-30T12:59:05;94134.66;;;1.92;83.90
6150;BME280;3106;42.670;23.318;2023-01-30T13:01:41;94128.78;;;1.95;83.97
6150;BME280;3106;42.670;23.318;2023-01-30T13:04:22;94118.03;;;1.92;85.03
6150;BME280;3106;42.670;23.318;2023-01-30T13:07:00;94127.22;;;1.94;84.31
6150;BME280;3106;42.670;23.318;2023-01-30T13:09:39;94111.22;;;1.77;85.32
6150;BME280;3106;42.670;23.318;2023-01-30T13:12:12;94132.88;;;1.88;85.05
6150;BME280;3106;42.670;23.318;2023-01-30T13:14:49;94127.34;;;1.76;85.01
6150;BME280;3106;42.670;23.318;2023-01-30T13:17:44;94135.25;;;1.49;86.82
6150;BME280;3106;42.670;23.318;2023-01-30T13:20:22;94127.34;;;1.36;87.64
6150;BME280;3106;42.670;23.318;2023-01-30T13:22:59;94123.03;;;1.13;88.68
6150;BME280;3106;42.670;23.318;2023-01-30T13:25:34;94118.53;;;1.13;90.11
6150;BME280;3106;42.670;23.318;2023-01-30T13:28:08;94111.22;;;0.97;89.94
6150;BME280;3106;42.670;23.318;2023-01-30T13:30:38;94098.94;;;0.92;90.38
6150;BME280;3106;42.670;23.318;2023-01-30T13:33:10;94084.25;;;0.59;90.70
6150;BME280;3106;42.670;23.318;2023-01-30T13:35:44;94101.41;;;0.70;90.87
6150;BME280;3106;42.670;23.318;2023-01-30T13:38:18;94078.59;;;0.66;91.09
6150;BME280;3106;42.670;23.318;2023-01-30T13:40:50;94085.63;;;0.70;90.91